Time;durP1;ratioP1;P1;durP2;ratioP2;P2;SDS_P1;SDS_P2;PMS_P1;PMS_P2;Temp;Humidity;BMP_temperature;BMP_pressure;BME280_temperature;BME280_humidity;BME280_pressure;Samples;Min_cycle;Max_cycle;Signal;HPM_P1;HPM_P2
2023/09/08 00:02:10;;;;;;;764.72;692.60;;;18.00;99.90;;;;;;6213799;23;20016;-91
2023/09/08 00:04:35;;;;;;;554.42;506.95;;;18.00;99.90;;;;;;6213909;23;20016;-91
2023/09/08 00:07:01;;;;;;;496.92;455.02;;;18.00;99.90;;;;;;6213719;23;20428;-91
2023/09/08 00:09:27;;;;;;;747.60;678.63;;;17.90;99.90;;;;;;6213050;23;20024;-91
2023/09/08 00:11:54;;;;;;;756.17;686.33;;;17.90;99.90;;;;;;6212952;23;20051;-90
2023/09/08 00:14:20;;;;;;;780.33;706.53;;;17.90;99.90;;;;;;6214205;23;20099;-90
2023/09/08 00:16:46;;;;;;;806.25;729.95;;;17.90;99.90;;;;;;6238521;23;20048;-90
2023/09/08 00:19:12;;;;;;;820.83;742.20;;;17.80;99.90;;;;;;6213559;23;20420;-90
2023/09/08 00:21:37;;;;;;;759.40;689.35;;;17.80;99.90;;;;;;6239277;23;20635;-91
2023/09/08 00:24:04;;;;;;;771.80;700.85;;;17.80;99.90;;;;;;6213447;23;20096;-90
2023/09/08 00:26:32;;;;;;;822.28;743.30;;;17.70;99.90;;;;;;6239008;23;20099;-90
2023/09/08 00:28:58;;;;;;;749.72;680.05;;;17.70;99.90;;;;;;6214019;23;20512;-90
2023/09/08 00:31:24;;;;;;;832.78;752.88;;;17.70;99.90;;;;;;6238732;23;20134;-90
2023/09/08 00:33:50;;;;;;;793.22;717.88;;;17.70;99.90;;;;;;6213985;23;20123;-90
2023/09/08 00:36:15;;;;;;;830.88;750.22;;;17.70;99.90;;;;;;6213237;23;20052;-90
2023/09/08 00:38:41;;;;;;;836.88;756.50;;;17.60;99.90;;;;;;6212959;23;20020;-90
2023/09/08 00:41:07;;;;;;;793.83;719.55;;;17.60;99.90;;;;;;6238278;23;20328;-89
2023/09/08 00:43:33;;;;;;;792.78;718.65;;;17.60;99.90;;;;;;6213348;23;20093;-90
2023/09/08 00:46:02;;;;;;;789.78;716.13;;;17.50;99.90;;;;;;6213917;23;20451;-90
2023/09/08 00:48:28;;;;;;;813.42;736.15;;;17.50;99.90;;;;;;6213736;23;20052;-91
2023/09/08 00:50:54;;;;;;;815.13;737.08;;;17.50;99.90;;;;;;6212769;23;20095;-90
2023/09/08 00:53:21;;;;;;;816.15;738.50;;;17.40;99.90;;;;;;6213525;23;20020;-90
2023/09/08 00:55:48;;;;;;;797.45;722.58;;;17.40;99.90;;;;;;6212465;23;20329;-90
2023/09/08 00:58:14;;;;;;;774.90;702.63;;;17.40;99.90;;;;;;6213110;23;20345;-89
2023/09/08 01:00:40;;;;;;;835.80;755.50;;;17.40;99.90;;;;;;6238114;23;20098;-89
2023/09/08 01:03:06;;;;;;;808.92;731.75;;;17.30;99.90;;;;;;6239225;23;20048;-90
2023/09/08 01:05:32;;;;;;;808.28;731.70;;;17.30;99.90;;;;;;6212566;23;20377;-90
2023/09/08 01:08:00;;;;;;;788.40;714.83;;;17.30;99.90;;;;;;6215426;23;20542;-90
2023/09/08 01:10:26;;;;;;;872.58;788.15;;;17.30;99.90;;;;;;6214763;23;20024;-90
2023/09/08 01:12:52;;;;;;;798.15;724.17;;;17.30;99.90;;;;;;6213715;23;20016;-90
2023/09/08 01:15:17;;;;;;;830.83;752.00;;;17.20;99.90;;;;;;6241264;23;20355;-89
2023/09/08 01:17:43;;;;;;;800.28;725.33;;;17.20;99.90;;;;;;6214835;23;20103;-90
2023/09/08 01:20:23;;;;;;;825.22;745.85;;;17.10;99.90;;;;;;6240018;23;20608;-90
2023/09/08 01:22:57;;;;;;;813.65;735.40;;;17.10;99.90;;;;;;6215003;23;20522;-90
2023/09/08 01:25:28;;;;;;;833.80;754.53;;;17.10;99.90;;;;;;6214271;23;20059;-90
2023/09/08 01:27:57;;;;;;;855.40;772.50;;;17.00;99.90;;;;;;6240108;23;20080;-91
2023/09/08 01:30:24;;;;;;;877.25;790.95;;;17.00;99.90;;;;;;6216066;23;20020;-90
2023/09/08 01:32:51;;;;;;;830.67;752.78;;;17.00;99.90;;;;;;6240011;23;20019;-90
2023/09/08 01:35:17;;;;;;;869.00;784.60;;;16.90;99.90;;;;;;6240538;23;20090;-90
2023/09/08 01:37:47;;;;;;;844.80;764.03;;;16.90;99.90;;;;;;6214558;23;20016;-90
2023/09/08 01:40:13;;;;;;;866.60;781.38;;;16.90;99.90;;;;;;6238651;23;20074;-90
2023/09/08 01:42:39;;;;;;;870.97;785.03;;;16.80;99.90;;;;;;6214758;23;20094;-90
2023/09/08 01:45:06;;;;;;;861.50;778.25;;;16.80;99.90;;;;;;6240543;23;20008;-90
2023/09/08 01:47:32;;;;;;;878.63;792.53;;;16.80;99.90;;;;;;6214604;23;20016;-89
2023/09/08 01:49:58;;;;;;;888.90;801.53;;;16.80;99.90;;;;;;6240794;23;20016;-90
2023/09/08 01:52:24;;;;;;;878.33;793.20;;;16.70;99.90;;;;;;6240752;23;20039;-90
2023/09/08 01:54:50;;;;;;;836.08;756.30;;;16.70;99.90;;;;;;6213356;23;20068;-90
2023/09/08 01:57:16;;;;;;;839.08;757.88;;;16.70;99.90;;;;;;6240212;23;20023;-91
2023/09/08 01:59:43;;;;;;;838.67;758.92;;;16.70;99.90;;;;;;6239911;23;20019;-90
2023/09/08 02:02:11;;;;;;;826.85;743.30;;;16.70;99.90;;;;;;6214413;23;20050;-92
2023/09/08 02:04:40;;;;;;;864.95;781.67;;;16.70;99.90;;;;;;6240242;23;20016;-90
2023/09/08 02:07:06;;;;;;;848.63;767.88;;;16.60;99.90;;;;;;6240820;23;20480;-90
2023/09/08 02:09:33;;;;;;;851.58;768.42;;;16.60;99.90;;;;;;6213650;23;20115;-90
2023/09/08 02:11:59;;;;;;;775.92;701.35;;;16.60;99.90;;;;;;6214883;23;20020;-90
2023/09/08 02:14:25;;;;;;;838.70;759.47;;;16.60;99.90;;;;;;6240054;23;20432;-90
2023/09/08 02:16:50;;;;;;;841.03;763.80;;;16.50;99.90;;;;;;6214665;23;20012;-90
2023/09/08 02:19:16;;;;;;;840.75;760.20;;;16.50;99.90;;;;;;6214488;23;20020;-90
2023/09/08 02:21:45;;;;;;;843.63;761.50;;;16.50;99.90;;;;;;6214884;23;20388;-90
2023/09/08 02:24:11;;;;;;;869.20;785.80;;;16.50;99.90;;;;;;6213821;23;20020;-90
2023/09/08 02:26:38;;;;;;;828.55;751.85;;;16.50;99.90;;;;;;6214356;23;20016;-90
2023/09/08 02:29:04;;;;;;;853.13;770.83;;;16.50;99.90;;;;;;6239831;23;20340;-90
2023/09/08 02:31:29;;;;;;;841.15;760.47;;;16.40;99.90;;;;;;6214953;23;20012;-91
2023/09/08 02:33:55;;;;;;;821.70;745.50;;;16.40;99.90;;;;;;6214604;23;20381;-91
2023/09/08 02:36:27;;;;;;;814.92;738.78;;;16.40;99.90;;;;;;6214077;23;20047;-91
2023/09/08 02:38:56;;;;;;;840.17;760.50;;;16.40;99.90;;;;;;6239380;23;20468;-91
2023/09/08 02:41:22;;;;;;;804.25;729.63;;;16.30;99.90;;;;;;6238971;23;20018;-90
2023/09/08 02:43:49;;;;;;;837.20;759.30;;;16.30;99.90;;;;;;6214178;23;20104;-90
2023/09/08 02:46:15;;;;;;;819.30;743.65;;;16.20;99.90;;;;;;6239669;23;20020;-90
2023/09/08 02:48:41;;;;;;;854.13;771.65;;;16.20;99.90;;;;;;6239238;23;20016;-90
2023/09/08 02:51:07;;;;;;;901.28;811.30;;;16.20;99.90;;;;;;6213527;23;20359;-90
2023/09/08 02:53:35;;;;;;;882.88;794.80;;;16.20;99.90;;;;;;6239655;23;20043;-90
2023/09/08 02:56:03;;;;;;;919.97;826.38;;;16.10;99.90;;;;;;6239758;23;20042;-90
2023/09/08 02:58:30;;;;;;;824.42;746.58;;;16.10;99.90;;;;;;6239150;23;20091;-90
2023/09/08 03:00:56;;;;;;;896.60;807.13;;;16.10;99.90;;;;;;6239400;23;20023;-90
2023/09/08 03:03:22;;;;;;;872.55;787.20;;;16.10;99.90;;;;;;6214939;23;20027;-90
2023/09/08 03:05:48;;;;;;;875.58;789.13;;;16.00;99.90;;;;;;6240194;23;20016;-90
2023/09/08 03:08:13;;;;;;;843.40;762.67;;;16.10;99.90;;;;;;6241655;23;20332;-90
2023/09/08 03:10:40;;;;;;;799.08;725.17;;;16.00;99.90;;;;;;6239179;23;20113;-90
2023/09/08 03:13:06;;;;;;;800.55;727.25;;;16.00;99.90;;;;;;6214632;23;20016;-89
2023/09/08 03:15:33;;;;;;;811.05;734.72;;;16.00;99.90;;;;;;6214864;23;20030;-90
2023/09/08 03:17:59;;;;;;;826.65;749.17;;;16.00;99.90;;;;;;6215362;23;20016;-90
2023/09/08 03:20:26;;;;;;;836.75;758.20;;;15.90;99.90;;;;;;6215491;23;20070;-90
2023/09/08 03:22:52;;;;;;;787.45;716.58;;;15.90;99.90;;;;;;6214867;23;20089;-90
2023/09/08 03:25:18;;;;;;;853.40;771.42;;;15.90;99.90;;;;;;6240711;23;20095;-90
2023/09/08 03:27:44;;;;;;;840.55;760.47;;;15.80;99.90;;;;;;6214948;23;20051;-90
2023/09/08 03:30:11;;;;;;;836.40;756.55;;;15.80;99.90;;;;;;6215196;23;20019;-90
2023/09/08 03:32:37;;;;;;;810.88;733.83;;;15.80;99.90;;;;;;6215489;23;20016;-90
2023/09/08 03:35:06;;;;;;;876.80;789.35;;;15.80;99.90;;;;;;6215203;23;20016;-90
2023/09/08 03:37:32;;;;;;;850.85;767.67;;;15.70;99.90;;;;;;6240982;23;20048;-90
2023/09/08 03:39:57;;;;;;;873.25;786.75;;;15.70;99.90;;;;;;6214400;23;20046;-89
2023/09/08 03:42:32;;;;;;;916.60;823.60;;;15.70;99.90;;;;;;6240994;23;20039;-89
2023/09/08 03:44:58;;;;;;;900.53;809.53;;;15.70;99.90;;;;;;6215108;23;20024;-90
2023/09/08 03:47:25;;;;;;;899.35;807.75;;;15.60;99.90;;;;;;6240983;23;20024;-90
2023/09/08 03:49:50;;;;;;;908.17;815.75;;;15.60;99.90;;;;;;6214923;23;20012;-90
2023/09/08 03:52:16;;;;;;;868.22;783.10;;;15.60;99.90;;;;;;6215764;23;20038;-90
2023/09/08 03:54:42;;;;;;;871.67;786.92;;;15.60;99.90;;;;;;6214495;23;20016;-89
2023/09/08 03:57:07;;;;;;;902.30;810.40;;;15.60;99.90;;;;;;6215433;23;20028;-89
2023/09/08 03:59:33;;;;;;;847.78;766.75;;;15.60;99.90;;;;;;6240804;23;20016;-90
2023/09/08 04:02:00;;;;;;;912.28;821.17;;;15.60;99.90;;;;;;6214100;23;20478;-89
2023/09/08 04:04:28;;;;;;;835.30;755.47;;;15.50;99.90;;;;;;6241173;23;20016;-89
2023/09/08 04:06:53;;;;;;;903.60;812.20;;;15.50;99.90;;;;;;6214638;23;20070;-90
2023/09/08 04:09:19;;;;;;;921.42;825.17;;;15.50;99.90;;;;;;6214934;23;20024;-90
2023/09/08 04:11:45;;;;;;;888.10;798.55;;;15.50;99.90;;;;;;6214733;23;20023;-90
2023/09/08 04:14:10;;;;;;;912.85;819.70;;;15.50;99.90;;;;;;6215052;23;20501;-89
2023/09/08 04:16:36;;;;;;;888.28;799.90;;;15.40;99.90;;;;;;6214918;23;20122;-89
2023/09/08 04:19:02;;;;;;;909.58;817.13;;;15.40;99.90;;;;;;6240607;23;20070;-89
2023/09/08 04:21:27;;;;;;;916.75;822.38;;;15.40;99.90;;;;;;6215706;23;20039;-90
2023/09/08 04:23:53;;;;;;;903.83;812.00;;;15.40;99.90;;;;;;6240582;23;20448;-90
2023/09/08 04:26:19;;;;;;;851.70;770.03;;;15.40;99.90;;;;;;6214832;23;20020;-90
2023/09/08 04:28:44;;;;;;;895.53;804.88;;;15.40;99.90;;;;;;6240772;23;20425;-90
2023/09/08 04:31:10;;;;;;;921.22;826.10;;;15.30;99.90;;;;;;6215229;23;20047;-90
2023/09/08 04:33:36;;;;;;;872.03;786.42;;;15.30;99.90;;;;;;6215228;23;20020;-90
2023/09/08 04:36:02;;;;;;;898.88;808.17;;;15.30;99.90;;;;;;6214590;23;20086;-90
2023/09/08 04:38:27;;;;;;;898.15;808.63;;;15.30;99.90;;;;;;6215143;23;20100;-90
2023/09/08 04:40:53;;;;;;;887.10;799.10;;;15.30;99.90;;;;;;6239504;23;20027;-89
2023/09/08 04:43:19;;;;;;;881.80;795.83;;;15.20;99.90;;;;;;6242920;23;20016;-89
2023/09/08 04:45:45;;;;;;;852.55;771.28;;;15.20;99.90;;;;;;6241152;23;20107;-90
2023/09/08 04:48:10;;;;;;;908.47;815.53;;;15.20;99.90;;;;;;6242925;23;20027;-90
2023/09/08 04:50:36;;;;;;;904.38;813.85;;;15.20;99.90;;;;;;6214335;23;20020;-91
2023/09/08 04:53:02;;;;;;;849.85;769.65;;;15.20;99.90;;;;;;6240465;23;20105;-91
2023/09/08 04:55:28;;;;;;;833.20;754.83;;;15.20;99.90;;;;;;6214669;23;20020;-91
2023/09/08 04:57:54;;;;;;;874.70;789.13;;;15.10;99.90;;;;;;6214468;23;20481;-90
2023/09/08 05:00:20;;;;;;;857.70;774.08;;;15.10;99.90;;;;;;6215226;23;20095;-91
2023/09/08 05:02:46;;;;;;;883.13;795.88;;;15.10;99.90;;;;;;6214872;23;20020;-90
2023/09/08 05:05:11;;;;;;;906.60;815.88;;;15.10;99.90;;;;;;6240480;23;20035;-90
2023/09/08 05:07:37;;;;;;;833.50;754.42;;;15.10;99.90;;;;;;6216225;23;20051;-89
2023/09/08 05:10:03;;;;;;;874.80;789.53;;;15.10;99.90;;;;;;6214812;23;20016;-90
2023/09/08 05:12:29;;;;;;;831.25;753.55;;;15.10;99.90;;;;;;6216609;23;20026;-90
2023/09/08 05:14:59;;;;;;;849.03;768.47;;;15.10;99.90;;;;;;6213958;23;20416;-90
2023/09/08 05:17:26;;;;;;;842.13;761.63;;;15.10;99.90;;;;;;6240888;23;20439;-90
2023/09/08 05:19:53;;;;;;;820.92;744.88;;;15.10;99.90;;;;;;6213048;23;20012;-91
2023/09/08 05:22:19;;;;;;;816.15;740.28;;;15.10;99.90;;;;;;6242538;23;20031;-90
2023/09/08 05:24:45;;;;;;;803.20;727.85;;;15.10;99.90;;;;;;6213636;23;20016;-90
2023/09/08 05:27:11;;;;;;;855.03;772.65;;;15.10;99.90;;;;;;6213979;23;20020;-91
2023/09/08 05:29:36;;;;;;;833.20;753.67;;;15.10;99.90;;;;;;6240737;23;20088;-91
2023/09/08 05:32:03;;;;;;;822.50;745.90;;;15.10;99.90;;;;;;6212458;23;20344;-91
2023/09/08 05:34:28;;;;;;;826.60;749.47;;;15.10;99.90;;;;;;6239817;23;20020;-91
2023/09/08 05:36:55;;;;;;;840.58;762.35;;;15.20;99.90;;;;;;6214641;23;20023;-91
2023/09/08 05:39:27;;;;;;;823.30;747.35;;;15.20;99.90;;;;;;6212955;23;20020;-90
2023/09/08 05:41:53;;;;;;;814.22;739.67;;;15.20;99.90;;;;;;6214233;23;20048;-91
2023/09/08 05:44:19;;;;;;;829.30;750.85;;;15.20;99.90;;;;;;6240242;23;20455;-90
2023/09/08 05:46:45;;;;;;;808.72;735.20;;;15.30;99.90;;;;;;6215057;23;20441;-88
2023/09/08 05:49:11;;;;;;;708.55;648.42;;;15.30;99.90;;;;;;6235903;23;20024;-88
2023/09/08 05:51:39;;;;;;;711.53;650.67;;;15.40;99.90;;;;;;6238754;22;20733;-88
2023/09/08 05:54:05;;;;;;;745.58;679.33;;;15.40;99.90;;;;;;6209910;23;20024;-88
2023/09/08 05:56:34;;;;;;;784.63;713.35;;;15.40;99.90;;;;;;6211461;23;20302;-90
2023/09/08 05:59:02;;;;;;;738.30;673.40;;;15.50;99.90;;;;;;6237113;23;20422;-89
2023/09/08 06:01:29;;;;;;;767.20;698.40;;;15.60;99.90;;;;;;6236796;23;20106;-89
2023/09/08 06:03:55;;;;;;;827.50;750.67;;;15.60;99.90;;;;;;6211424;23;20020;-90
2023/09/08 06:06:28;;;;;;;744.05;678.50;;;15.70;99.90;;;;;;6211834;23;20020;-89
2023/09/08 06:08:54;;;;;;;727.08;664.67;;;15.70;99.90;;;;;;6211332;23;20016;-89
2023/09/08 06:11:20;;;;;;;734.17;670.25;;;15.80;99.90;;;;;;6214804;22;20066;-89
2023/09/08 06:13:45;;;;;;;782.28;711.40;;;16.00;99.90;;;;;;6269238;22;20039;-88
2023/09/08 06:16:14;;;;;;;778.65;708.13;;;15.90;99.90;;;;;;6241192;22;20332;-88
2023/09/08 06:18:40;;;;;;;773.72;703.30;;;16.00;99.90;;;;;;6241811;22;20355;-88
2023/09/08 06:21:08;;;;;;;747.83;680.92;;;16.10;99.90;;;;;;6241753;22;20011;-89
2023/09/08 06:23:35;;;;;;;752.15;684.60;;;15.90;99.90;;;;;;6241949;22;20047;-88
2023/09/08 06:26:01;;;;;;;764.70;695.25;;;16.20;99.90;;;;;;6215227;22;20027;-88
2023/09/08 06:28:30;;;;;;;742.33;675.55;;;16.30;99.90;;;;;;6241662;22;20008;-88
2023/09/08 06:30:56;;;;;;;743.05;677.80;;;16.40;99.90;;;;;;6216579;22;20164;-89
2023/09/08 06:33:24;;;;;;;749.95;682.90;;;16.50;99.90;;;;;;6242549;22;20012;-89
2023/09/08 06:35:53;;;;;;;790.33;715.75;;;16.60;99.90;;;;;;6241662;22;20077;-90
2023/09/08 06:38:19;;;;;;;771.08;700.13;;;16.70;99.90;;;;;;6217328;22;20099;-89
2023/09/08 06:40:45;;;;;;;740.20;675.03;;;16.80;99.90;;;;;;6238996;22;20051;-89
2023/09/08 06:43:25;;;;;;;741.10;674.42;;;16.90;99.90;;;;;;6216730;22;20019;-89
2023/09/08 06:45:54;;;;;;;761.55;691.85;;;17.00;99.90;;;;;;6241678;22;20043;-89
2023/09/08 06:48:20;;;;;;;721.83;659.42;;;17.10;99.90;;;;;;6216633;22;20020;-88
2023/09/08 06:50:45;;;;;;;712.75;651.50;;;17.10;99.90;;;;;;6214555;22;20072;-89
2023/09/08 06:53:12;;;;;;;705.05;645.47;;;17.30;99.90;;;;;;6216978;22;20069;-89
2023/09/08 06:55:38;;;;;;;686.90;627.92;;;17.30;99.90;;;;;;6215107;22;20035;-89
2023/09/08 06:58:06;;;;;;;711.72;650.85;;;17.40;99.90;;;;;;6215859;22;20027;-89
2023/09/08 07:00:32;;;;;;;672.53;616.00;;;17.50;99.90;;;;;;6215633;22;20020;-89
2023/09/08 07:03:02;;;;;;;704.40;644.50;;;17.60;99.90;;;;;;6241782;22;20031;-89
2023/09/08 07:05:28;;;;;;;719.92;658.38;;;17.80;99.90;;;;;;6215324;22;20022;-89
2023/09/08 07:07:54;;;;;;;706.53;645.97;;;17.90;99.90;;;;;;6215992;22;20102;-89
2023/09/08 07:10:20;;;;;;;692.30;633.05;;;18.00;99.90;;;;;;6215531;22;20051;-89
2023/09/08 07:12:47;;;;;;;660.25;602.85;;;18.10;99.90;;;;;;6214961;22;20027;-88
2023/09/08 07:15:13;;;;;;;669.88;612.20;;;18.30;99.90;;;;;;6215585;22;20016;-89
2023/09/08 07:17:47;;;;;;;695.80;634.22;;;18.40;99.90;;;;;;6215109;22;20328;-88
2023/09/08 07:20:13;;;;;;;620.90;565.65;;;18.50;99.90;;;;;;6215716;22;20064;-88
2023/09/08 07:22:39;;;;;;;629.25;572.95;;;18.70;99.90;;;;;;6215464;22;20098;-88
2023/09/08 07:25:06;;;;;;;503.92;456.98;;;18.70;99.90;;;;;;6214429;22;20062;-89
2023/09/08 07:27:38;;;;;;;571.35;518.95;;;18.90;99.90;;;;;;6215934;22;20020;-89
2023/09/08 07:30:05;;;;;;;620.78;565.35;;;19.00;99.90;;;;;;6216802;22;20035;-88
2023/09/08 07:32:34;;;;;;;477.60;434.02;;;19.10;99.90;;;;;;6267372;22;20026;-87
2023/09/08 07:35:00;;;;;;;325.52;300.52;;;19.20;99.90;;;;;;6266432;22;20054;-88
2023/09/08 07:37:26;;;;;;;434.50;396.23;;;19.20;99.90;;;;;;6267922;22;20020;-87
2023/09/08 07:39:52;;;;;;;463.33;421.70;;;19.50;99.90;;;;;;6216655;22;20093;-92
2023/09/08 07:42:17;;;;;;;360.27;330.98;;;19.50;99.90;;;;;;6245379;22;20015;-91
2023/09/08 07:44:45;;;;;;;374.00;343.85;;;19.60;99.90;;;;;;6218641;22;20019;-91
2023/09/08 07:47:10;;;;;;;341.92;316.50;;;19.70;99.90;;;;;;6244263;22;20012;-92
2023/09/08 07:49:36;;;;;;;352.50;325.00;;;19.80;99.90;;;;;;6218910;22;20035;-91
2023/09/08 07:52:07;;;;;;;374.48;344.20;;;19.90;99.90;;;;;;6217844;22;20138;-92
2023/09/08 07:54:33;;;;;;;292.83;271.40;;;20.00;99.90;;;;;;6215709;22;20026;-93
2023/09/08 07:56:59;;;;;;;325.48;300.20;;;20.10;99.90;;;;;;6216536;22;20019;-92
2023/09/08 07:59:25;;;;;;;290.15;268.25;;;20.20;99.90;;;;;;6242660;22;20103;-93
2023/09/08 08:01:50;;;;;;;306.98;282.55;;;20.30;99.90;;;;;;6215945;22;20043;-92
2023/09/08 08:04:16;;;;;;;356.23;327.83;;;20.30;99.90;;;;;;6216198;22;20016;-92
2023/09/08 08:06:42;;;;;;;368.08;340.80;;;20.40;99.90;;;;;;6215869;22;20064;-92
2023/09/08 08:09:11;;;;;;;305.00;282.20;;;20.50;99.90;;;;;;6242366;22;20020;-93
2023/09/08 08:11:36;;;;;;;338.98;311.83;;;20.60;99.90;;;;;;6217178;22;20015;-93
2023/09/08 08:14:02;;;;;;;382.20;351.30;;;20.70;99.90;;;;;;6216657;22;20058;-92
2023/09/08 08:16:28;;;;;;;293.13;270.17;;;20.80;99.90;;;;;;6216836;22;20015;-93
2023/09/08 08:18:54;;;;;;;345.50;316.15;;;20.70;99.90;;;;;;6245259;22;20059;-92
2023/09/08 08:21:22;;;;;;;343.63;316.75;;;21.00;99.90;;;;;;6220536;22;20073;-92
2023/09/08 08:23:49;;;;;;;325.73;300.25;;;21.10;99.90;;;;;;6221370;22;20460;-92
2023/09/08 08:26:14;;;;;;;362.48;332.70;;;21.20;99.90;;;;;;6245696;22;20065;-92
2023/09/08 08:28:40;;;;;;;418.52;383.27;;;21.30;99.90;;;;;;6245898;22;20016;-92
2023/09/08 08:31:09;;;;;;;497.45;454.98;;;21.40;99.90;;;;;;6246573;22;20069;-93
2023/09/08 08:33:35;;;;;;;488.30;446.75;;;21.50;99.90;;;;;;6221025;22;20098;-93
2023/09/08 08:36:01;;;;;;;463.05;424.40;;;21.60;99.90;;;;;;6220293;22;20073;-94
2023/09/08 08:38:27;;;;;;;472.50;432.05;;;21.70;99.90;;;;;;6246413;22;20016;-92
2023/09/08 08:40:52;;;;;;;411.55;378.35;;;21.80;99.90;;;;;;6245712;22;20094;-93
2023/09/08 08:43:21;;;;;;;332.08;305.60;;;21.90;99.90;;;;;;6246277;22;20134;-93
2023/09/08 08:45:59;;;;;;;410.05;376.38;;;22.00;99.90;;;;;;6221669;22;20022;-93
2023/09/08 08:48:27;;;;;;;404.23;370.75;;;22.20;99.90;;;;;;6221184;22;20011;-93
2023/09/08 08:50:53;;;;;;;567.60;519.65;;;22.30;99.90;;;;;;6220028;22;20084;-94
2023/09/08 08:53:21;;;;;;;572.35;524.17;;;22.40;99.90;;;;;;6246162;22;20073;-93
2023/09/08 08:55:54;;;;;;;537.28;491.77;;;22.50;99.90;;;;;;6220719;22;20066;-93
2023/09/08 08:58:24;;;;;;;462.30;424.05;;;22.50;99.90;;;;;;6220524;22;20066;-92
2023/09/08 09:00:53;;;;;;;656.80;598.55;;;22.70;99.90;;;;;;6246193;22;20045;-93
2023/09/08 09:03:20;;;;;;;437.70;401.88;;;22.80;99.90;;;;;;6245720;22;20019;-92
2023/09/08 09:05:46;;;;;;;613.75;561.20;;;22.80;99.90;;;;;;6246375;22;20016;-93
2023/09/08 09:08:15;;;;;;;591.10;538.35;;;22.90;99.90;;;;;;6246203;22;20065;-94
2023/09/08 09:10:42;;;;;;;645.65;589.60;;;23.10;99.90;;;;;;6219178;22;20031;-94
2023/09/08 09:13:08;;;;;;;535.78;490.63;;;23.20;99.90;;;;;;6214952;23;20038;-94
2023/09/08 09:15:33;;;;;;;560.63;508.63;;;23.30;99.90;;;;;;6215742;23;20020;-94
2023/09/08 09:18:07;;;;;;;657.33;596.55;;;23.40;99.90;;;;;;6239848;23;20115;-93
2023/09/08 09:20:36;;;;;;;533.53;483.52;;;23.50;99.90;;;;;;6215484;23;20023;-95
2023/09/08 09:23:03;;;;;;;644.88;584.50;;;23.60;99.90;;;;;;6214936;23;20016;-93
2023/09/08 09:25:32;;;;;;;657.53;597.08;;;23.60;99.90;;;;;;6214606;23;20352;-94
2023/09/08 09:28:00;;;;;;;564.25;510.73;;;23.80;99.90;;;;;;6215768;23;20024;-95
2023/09/08 09:30:28;;;;;;;459.60;417.13;;;23.90;99.90;;;;;;6215763;23;20008;-93
2023/09/08 09:33:04;;;;;;;570.88;517.92;;;24.00;99.90;;;;;;6239614;23;20347;-94
2023/09/08 09:38:52;;;;;;;568.88;515.15;;;24.20;99.90;;;;;;6233235;23;20016;-93
2023/09/08 09:41:18;;;;;;;497.98;452.05;;;24.30;99.90;;;;;;6240597;23;20051;-93
2023/09/08 09:43:44;;;;;;;402.48;369.80;;;24.40;99.90;;;;;;6239826;23;20388;-92
2023/09/08 09:46:20;;;;;;;;;;;;;;;;;;;;;
2023/09/08 09:49:01;;;;;;;373.17;342.75;;;24.50;99.90;;;;;;6240669;23;20027;-94
2023/09/08 09:51:27;;;;;;;421.40;384.20;;;24.60;99.90;;;;;;6240790;23;20024;-94
2023/09/08 09:53:55;;;;;;;439.63;400.73;;;24.70;99.90;;;;;;6214682;23;20259;-94
2023/09/08 09:56:25;;;;;;;355.17;326.23;;;24.80;99.90;;;;;;6214125;23;20549;-94
2023/09/08 09:58:57;;;;;;;420.17;385.20;;;24.90;99.90;;;;;;6215709;23;20431;-94
2023/09/08 10:02:12;;;;;;;483.48;441.63;;;25.00;99.90;;;;;;6219631;23;20147;-93
2023/09/08 10:04:44;;;;;;;458.08;418.63;;;25.10;99.90;;;;;;6213573;23;20012;-95
2023/09/08 10:07:19;;;;;;;493.40;449.65;;;25.20;99.90;;;;;;6214956;23;20018;-95
2023/09/08 10:10:24;;;;;;;458.35;416.70;;;25.40;99.90;;;;;;6216276;23;20027;-95
2023/09/08 10:13:07;;;;;;;410.95;375.15;;;25.40;99.90;;;;;;6237303;22;20028;-95
2023/09/08 10:15:36;;;;;;;525.35;478.45;;;25.50;99.90;;;;;;6237739;23;20441;-95
2023/09/08 10:18:44;;;;;;;;;;;;;;;;;;;;;
2023/09/08 10:21:27;;;;;;;457.38;417.30;;;25.70;99.90;;;;;;6227027;23;20020;-91
2023/09/08 10:25:00;;;;;;;401.15;367.27;;;25.70;99.90;;;;;;6236859;23;20055;-91
2023/09/08 10:27:43;;;;;;;235.98;217.27;;;25.70;99.90;;;;;;6210752;23;20038;-89
2023/09/08 10:30:16;;;;;;;246.02;226.88;;;25.70;99.90;;;;;;6213825;23;20024;-91
2023/09/08 10:33:06;;;;;;;257.85;236.80;;;25.80;99.90;;;;;;6223024;23;20012;-93
2023/09/08 10:36:12;;;;;;;;;;;;;;;;;;;;;
2023/09/08 10:46:21;;;;;;;181.38;167.82;;;26.20;99.90;;;;;;6057695;23;20061;-95
2023/09/08 10:51:26;;;;;;;182.88;168.68;;;26.20;99.90;;;;;;6296783;22;20027;-94
2023/09/08 11:01:36;;;;;;;191.88;176.15;;;26.50;99.90;;;;;;6240586;23;20035;-96
2023/09/08 11:05:02;;;;;;;214.60;197.82;;;26.60;99.90;;;;;;6200545;23;20496;-96
2023/09/08 11:10:52;;;;;;;147.45;136.25;;;26.70;99.90;;;;;;6182051;23;20461;-94
2023/09/08 11:13:47;;;;;;;273.83;254.13;;;26.70;99.90;;;;;;6183870;22;20030;-95
2023/09/08 11:18:58;;;;;;;191.88;175.82;;;26.80;99.90;;;;;;6303046;22;20026;-93
2023/09/08 11:21:39;;;;;;;233.50;213.77;;;26.90;99.90;;;;;;6187840;22;20016;-92
2023/09/08 11:24:42;;;;;;;;;;;;;;;;;;;;;
2023/09/08 11:27:44;;;;;;;189.30;173.77;;;27.00;99.90;;;;;;6299071;22;20011;-95
2023/09/08 11:30:12;;;;;;;176.63;162.15;;;27.10;99.90;;;;;;6302999;22;20366;-94
2023/09/08 11:33:12;;;;;;;;;;;;;;;;;;;;;
2023/09/08 11:39:10;;;;;;;;;;;;;;;;;;;;;
2023/09/08 11:45:19;;;;;;;;;;;;;;;;;;;;;
2023/09/08 11:48:29;;;;;;;206.35;190.45;;;27.30;99.90;;;;;;6280720;22;20303;-94
2023/09/08 11:51:19;;;;;;;331.02;306.17;;;27.40;99.90;;;;;;6246866;22;20195;-94
2023/09/08 11:54:14;;;;;;;360.00;333.08;;;27.50;99.90;;;;;;6249972;22;20475;-95
2023/09/08 11:57:00;;;;;;;244.43;226.18;;;27.50;99.90;;;;;;6277574;22;20022;-95
2023/09/08 12:00:22;;;;;;;303.75;281.00;;;27.60;99.90;;;;;;6277021;22;20034;-96
2023/09/08 12:02:54;;;;;;;347.23;320.08;;;27.60;99.90;;;;;;6249834;22;20057;-95
2023/09/08 12:06:07;;;;;;;300.80;277.95;;;27.60;99.90;;;;;;6275046;22;20065;-95
2023/09/08 12:09:02;;;;;;;399.23;367.45;;;27.60;99.90;;;;;;6275633;22;20058;-95
2023/09/08 12:11:43;;;;;;;383.88;352.70;;;27.60;99.90;;;;;;6274664;22;20015;-95
2023/09/08 12:14:11;;;;;;;388.83;358.38;;;27.70;99.90;;;;;;6274562;22;20072;-94
2023/09/08 12:16:39;;;;;;;397.13;365.88;;;27.70;99.90;;;;;;6275615;22;20026;-95
2023/09/08 12:19:33;;;;;;;411.75;378.95;;;27.70;99.90;;;;;;6279259;22;20391;-95
2023/09/08 12:22:12;;;;;;;408.50;374.33;;;27.80;99.90;;;;;;6248945;22;20065;-96
2023/09/08 12:24:56;;;;;;;429.90;394.75;;;27.80;99.90;;;;;;6274760;22;20073;-94
2023/09/08 12:27:24;;;;;;;421.98;385.60;;;27.80;99.90;;;;;;6275188;22;20439;-96
2023/09/08 12:30:01;;;;;;;379.17;348.20;;;27.80;99.90;;;;;;6249285;22;20046;-94
2023/09/08 12:32:30;;;;;;;389.70;356.50;;;27.90;99.90;;;;;;6250561;22;20019;-95
2023/09/08 12:34:57;;;;;;;403.48;370.25;;;27.80;99.90;;;;;;6274468;22;20018;-96
2023/09/08 12:37:24;;;;;;;387.25;355.75;;;27.80;99.90;;;;;;6276188;22;20020;-94
2023/09/08 12:39:53;;;;;;;412.25;375.83;;;27.80;99.90;;;;;;6235228;22;20043;-95
2023/09/08 12:42:47;;;;;;;413.58;377.45;;;27.90;99.90;;;;;;6175200;23;20023;-96
2023/09/08 12:45:40;;;;;;;319.10;289.67;;;27.90;99.90;;;;;;6145201;23;20528;-96
2023/09/08 12:48:09;;;;;;;351.42;317.80;;;27.90;99.90;;;;;;6188068;23;20020;-94
2023/09/08 12:50:34;;;;;;;278.67;253.52;;;27.90;99.90;;;;;;6213632;23;20083;-94
2023/09/08 12:53:06;;;;;;;326.25;295.45;;;27.90;99.90;;;;;;6210854;23;20484;-96
2023/09/08 12:55:53;;;;;;;286.63;261.27;;;27.90;99.90;;;;;;6187453;23;20020;-96
2023/09/08 12:58:34;;;;;;;287.23;262.45;;;27.90;99.90;;;;;;6189247;23;20059;-95
2023/09/08 13:01:09;;;;;;;348.13;316.88;;;27.80;99.90;;;;;;6189131;23;20016;-94
2023/09/08 13:03:59;;;;;;;310.88;283.05;;;27.90;99.90;;;;;;6188293;23;20467;-96
2023/09/08 13:06:41;;;;;;;337.60;308.70;;;27.70;99.90;;;;;;6241725;23;20077;-95